Time;durP1;ratioP1;P1;durP2;ratioP2;P2;SDS_P1;SDS_P2;PMS_P1;PMS_P2;Temp;Humidity;BMP_temperature;BMP_pressure;BME280_temperature;BME280_humidity;BME280_pressure;Samples;Min_cycle;Max_cycle;Signal;HPM_P1;HPM_P2
2023/10/21 00:01:23;;;;;;;2.80;0.80;;;;;;;;;;5006613;28;20452;-71
2023/10/21 00:03:49;;;;;;;2.40;0.93;;;;;;;;;;5002517;28;20460;-70
2023/10/21 00:06:16;;;;;;;1.80;0.80;;;;;;;;;;5006236;28;20591;-70
2023/10/21 00:08:43;;;;;;;2.40;0.80;;;;;;;;;;5010858;28;20479;-71
2023/10/21 00:11:12;;;;;;;1.90;0.80;;;;;;;;;;5010302;28;20868;-70
2023/10/21 00:13:39;;;;;;;4.07;0.83;;;;;;;;;;5010513;28;20452;-71
2023/10/21 00:16:06;;;;;;;2.40;1.20;;;;;;;;;;5010465;28;20472;-70
2023/10/21 00:18:33;;;;;;;2.37;0.80;;;;;;;;;;5012106;28;20440;-71
2023/10/21 00:21:01;;;;;;;1.87;0.67;;;;;;;;;;4999042;28;20440;-70
2023/10/21 00:23:29;;;;;;;1.50;0.50;;;;;;;;;;5010448;28;20934;-71
2023/10/21 00:25:56;;;;;;;2.13;0.93;;;;;;;;;;5002684;28;20493;-70
2023/10/21 00:28:25;;;;;;;2.00;0.90;;;;;;;;;;5010845;28;20448;-70
2023/10/21 00:30:52;;;;;;;1.50;0.50;;;;;;;;;;4997715;28;20456;-71
2023/10/21 00:33:19;;;;;;;2.00;0.70;;;;;;;;;;5011261;28;20480;-70
2023/10/21 00:35:46;;;;;;;1.50;0.40;;;;;;;;;;5004376;28;20890;-70
2023/10/21 00:38:13;;;;;;;1.90;0.77;;;;;;;;;;5005120;28;20444;-70
2023/10/21 00:40:49;;;;;;;1.60;0.60;;;;;;;;;;5010178;28;20451;-71
2023/10/21 00:43:32;;;;;;;1.60;0.50;;;;;;;;;;5011025;28;20495;-71
2023/10/21 00:46:00;;;;;;;1.50;0.57;;;;;;;;;;5008995;28;20566;-71
2023/10/21 00:48:28;;;;;;;2.00;0.60;;;;;;;;;;5009119;28;20503;-70
2023/10/21 00:50:55;;;;;;;1.60;0.60;;;;;;;;;;5010433;28;20446;-70
2023/10/21 00:53:22;;;;;;;1.50;0.50;;;;;;;;;;5011436;28;20452;-70
2023/10/21 00:55:49;;;;;;;1.60;0.70;;;;;;;;;;5001424;28;20480;-70
2023/10/21 00:58:16;;;;;;;1.80;0.60;;;;;;;;;;5010046;28;20510;-70
2023/10/21 01:00:43;;;;;;;1.70;0.60;;;;;;;;;;5008666;28;20482;-70
2023/10/21 01:03:12;;;;;;;1.80;0.60;;;;;;;;;;5011357;28;20448;-71
2023/10/21 01:05:39;;;;;;;1.90;0.50;;;;;;;;;;5061616;22;20487;-72
2023/10/21 01:08:06;;;;;;;1.93;0.50;;;;;;;;;;5010460;28;20433;-71
2023/10/21 01:10:33;;;;;;;1.80;0.60;;;;;;;;;;5006540;28;20847;-70
2023/10/21 01:13:00;;;;;;;1.60;0.50;;;;;;;;;;5012978;28;20440;-71
2023/10/21 01:15:27;;;;;;;3.93;0.70;;;;;;;;;;4998634;28;20459;-70
2023/10/21 01:17:55;;;;;;;1.70;0.60;;;;;;;;;;5016618;28;20457;-70
2023/10/21 01:20:23;;;;;;;1.70;0.60;;;;;;;;;;5017585;28;20458;-71
2023/10/21 01:22:50;;;;;;;1.80;0.60;;;;;;;;;;5010684;28;20463;-72
2023/10/21 01:25:19;;;;;;;3.03;0.57;;;;;;;;;;5010088;28;20480;-70
2023/10/21 01:27:46;;;;;;;1.53;0.47;;;;;;;;;;5022879;28;20459;-71
2023/10/21 01:30:13;;;;;;;2.07;0.67;;;;;;;;;;5015881;28;20918;-71
2023/10/21 01:32:40;;;;;;;1.90;0.70;;;;;;;;;;5018099;28;20455;-71
2023/10/21 01:35:08;;;;;;;2.37;0.70;;;;;;;;;;5011791;28;20468;-72
2023/10/21 01:37:35;;;;;;;1.50;0.50;;;;;;;;;;5022815;28;20455;-73
2023/10/21 01:40:02;;;;;;;2.90;1.00;;;;;;;;;;5016658;28;20467;-72
2023/10/21 01:42:30;;;;;;;1.47;0.50;;;;;;;;;;5025556;28;20443;-71
2023/10/21 01:44:58;;;;;;;1.80;0.53;;;;;;;;;;5016613;28;20458;-71
2023/10/21 01:47:26;;;;;;;1.60;0.50;;;;;;;;;;5017964;28;20452;-72
2023/10/21 01:49:54;;;;;;;1.50;0.50;;;;;;;;;;5027357;28;20453;-70
2023/10/21 01:52:21;;;;;;;1.70;0.60;;;;;;;;;;5025364;28;20914;-70
2023/10/21 01:54:48;;;;;;;1.70;0.77;;;;;;;;;;5012153;28;20447;-70
2023/10/21 01:57:15;;;;;;;1.50;0.50;;;;;;;;;;5027756;28;20439;-70
2023/10/21 01:59:44;;;;;;;1.50;0.50;;;;;;;;;;5017688;28;20459;-70
2023/10/21 02:02:11;;;;;;;3.20;0.60;;;;;;;;;;5013609;28;20876;-70
2023/10/21 02:04:38;;;;;;;1.60;0.50;;;;;;;;;;5013514;28;20443;-71
2023/10/21 02:07:05;;;;;;;1.60;0.50;;;;;;;;;;5033510;28;20503;-72
2023/10/21 02:09:33;;;;;;;2.60;0.60;;;;;;;;;;5021905;28;20458;-71
2023/10/21 02:12:00;;;;;;;1.50;0.43;;;;;;;;;;5027799;28;20466;-71
2023/10/21 02:14:27;;;;;;;2.00;0.77;;;;;;;;;;5017954;28;20459;-70
2023/10/21 02:16:55;;;;;;;1.60;0.50;;;;;;;;;;5023540;28;20578;-69
2023/10/21 02:19:24;;;;;;;1.40;0.40;;;;;;;;;;5019499;28;20809;-70
2023/10/21 02:21:51;;;;;;;1.50;0.50;;;;;;;;;;5029760;28;20547;-70
2023/10/21 02:24:18;;;;;;;1.50;0.50;;;;;;;;;;5018076;28;20447;-70
2023/10/21 02:26:45;;;;;;;1.60;0.50;;;;;;;;;;5013207;28;20484;-70
2023/10/21 02:29:12;;;;;;;1.50;0.50;;;;;;;;;;5013361;28;20790;-70
2023/10/21 02:31:40;;;;;;;1.90;0.70;;;;;;;;;;5011689;28;20864;-70
2023/10/21 02:34:09;;;;;;;1.60;0.53;;;;;;;;;;5012437;28;20448;-70
2023/10/21 02:36:36;;;;;;;1.80;0.60;;;;;;;;;;5017811;28;20887;-69
2023/10/21 02:39:07;;;;;;;1.77;0.60;;;;;;;;;;5015547;28;20779;-70
2023/10/21 02:41:34;;;;;;;1.50;0.40;;;;;;;;;;5013191;28;20822;-70
2023/10/21 02:44:01;;;;;;;1.50;0.50;;;;;;;;;;5012471;28;20448;-70
2023/10/21 02:46:28;;;;;;;2.47;0.70;;;;;;;;;;5029298;28;20475;-71
2023/10/21 02:48:55;;;;;;;1.60;0.40;;;;;;;;;;5017968;28;20483;-71
2023/10/21 02:51:23;;;;;;;1.50;0.50;;;;;;;;;;5020712;28;20456;-71
2023/10/21 02:53:50;;;;;;;1.50;0.50;;;;;;;;;;5020275;28;20452;-72
2023/10/21 02:56:17;;;;;;;2.00;0.70;;;;;;;;;;5023405;28;20459;-72
2023/10/21 02:58:44;;;;;;;1.50;0.50;;;;;;;;;;5023890;28;20452;-71
2023/10/21 03:01:16;;;;;;;1.43;0.40;;;;;;;;;;5023929;28;20444;-73
2023/10/21 03:03:45;;;;;;;1.70;0.60;;;;;;;;;;5017229;28;20822;-73
2023/10/21 03:06:13;;;;;;;1.50;0.50;;;;;;;;;;5024220;28;20496;-71
2023/10/21 03:08:42;;;;;;;2.03;0.63;;;;;;;;;;5013934;28;20448;-71
2023/10/21 03:11:09;;;;;;;2.37;0.70;;;;;;;;;;5023345;28;20441;-71
2023/10/21 03:13:37;;;;;;;2.33;0.73;;;;;;;;;;5021671;28;20518;-70
2023/10/21 03:16:06;;;;;;;1.93;0.83;;;;;;;;;;5011682;28;20973;-71
2023/10/21 03:18:33;;;;;;;2.00;0.60;;;;;;;;;;5026057;28;20893;-71
2023/10/21 03:21:00;;;;;;;1.50;0.57;;;;;;;;;;5015480;28;20819;-71
2023/10/21 03:23:27;;;;;;;1.53;0.50;;;;;;;;;;5012452;28;20449;-71
2023/10/21 03:25:58;;;;;;;1.50;0.50;;;;;;;;;;5022509;28;20841;-71
2023/10/21 03:28:27;;;;;;;2.13;0.60;;;;;;;;;;5016042;28;21003;-72
2023/10/21 03:30:56;;;;;;;5.03;0.60;;;;;;;;;;5013385;28;20989;-71
2023/10/21 03:33:24;;;;;;;1.50;0.50;;;;;;;;;;5011901;28;20476;-71
2023/10/21 03:35:54;;;;;;;1.40;0.40;;;;;;;;;;5024312;28;20463;-71
2023/10/21 03:38:22;;;;;;;1.50;0.50;;;;;;;;;;5012618;28;20448;-71
2023/10/21 03:40:55;;;;;;;1.93;0.60;;;;;;;;;;5024275;28;20474;-70
2023/10/21 03:43:23;;;;;;;1.70;0.60;;;;;;;;;;5006107;28;20976;-70
2023/10/21 03:45:50;;;;;;;1.50;0.50;;;;;;;;;;5012351;28;20479;-71
2023/10/21 03:48:18;;;;;;;1.60;0.50;;;;;;;;;;5011999;28;20440;-71
2023/10/21 03:50:45;;;;;;;1.50;0.50;;;;;;;;;;5012081;28;20428;-70
2023/10/21 03:53:14;;;;;;;1.50;0.50;;;;;;;;;;5017206;28;20450;-70
2023/10/21 03:55:43;;;;;;;1.60;0.50;;;;;;;;;;5010857;28;20499;-71
2023/10/21 03:58:10;;;;;;;1.80;0.53;;;;;;;;;;4998794;28;20957;-71
2023/10/21 04:00:38;;;;;;;1.43;0.50;;;;;;;;;;5018808;28;20530;-70
2023/10/21 04:03:07;;;;;;;1.80;0.60;;;;;;;;;;5010108;28;20773;-70
2023/10/21 04:05:34;;;;;;;1.50;0.50;;;;;;;;;;5010853;28;21299;-71
2023/10/21 04:08:04;;;;;;;1.80;0.70;;;;;;;;;;5018703;28;20486;-71
2023/10/21 04:10:31;;;;;;;1.60;0.40;;;;;;;;;;5025227;28;20455;-71
2023/10/21 04:12:59;;;;;;;1.70;0.50;;;;;;;;;;5012454;28;20456;-71
2023/10/21 04:15:26;;;;;;;1.50;0.47;;;;;;;;;;5026824;28;20460;-70
2023/10/21 04:17:54;;;;;;;1.70;0.57;;;;;;;;;;5016813;28;20456;-72
2023/10/21 04:20:21;;;;;;;1.50;0.50;;;;;;;;;;5012070;28;20439;-70
2023/10/21 04:22:48;;;;;;;1.50;0.50;;;;;;;;;;5019516;28;20443;-70
2023/10/21 04:25:16;;;;;;;1.47;0.40;;;;;;;;;;5017922;28;20464;-66
2023/10/21 04:27:44;;;;;;;1.50;0.47;;;;;;;;;;5016058;28;20472;-66
2023/10/21 04:30:11;;;;;;;1.70;0.50;;;;;;;;;;5017059;28;20455;-66
2023/10/21 04:32:38;;;;;;;1.47;0.40;;;;;;;;;;5018655;28;20443;-66
2023/10/21 04:35:08;;;;;;;1.40;0.40;;;;;;;;;;5017190;28;20504;-66
2023/10/21 04:37:35;;;;;;;1.50;0.40;;;;;;;;;;5016641;28;20934;-66
2023/10/21 04:40:03;;;;;;;1.50;0.50;;;;;;;;;;5016727;28;20472;-66
2023/10/21 04:42:30;;;;;;;1.50;0.50;;;;;;;;;;5017566;28;20444;-66
2023/10/21 04:44:58;;;;;;;1.60;0.60;;;;;;;;;;5016850;28;20455;-66
2023/10/21 04:47:25;;;;;;;1.47;0.40;;;;;;;;;;5017495;28;20547;-66
2023/10/21 04:49:52;;;;;;;1.73;0.83;;;;;;;;;;5017759;28;20440;-67
2023/10/21 04:52:20;;;;;;;1.40;0.40;;;;;;;;;;5019281;28;20444;-67
2023/10/21 04:54:47;;;;;;;4.30;0.67;;;;;;;;;;5023799;28;20478;-67
2023/10/21 04:57:14;;;;;;;1.40;0.40;;;;;;;;;;5027477;28;20444;-67
2023/10/21 04:59:42;;;;;;;1.50;0.50;;;;;;;;;;5018929;28;20449;-65
2023/10/21 05:02:09;;;;;;;1.50;0.50;;;;;;;;;;5017002;28;20818;-66
2023/10/21 05:04:36;;;;;;;1.50;0.50;;;;;;;;;;5034827;28;20454;-66
2023/10/21 05:07:03;;;;;;;1.40;0.50;;;;;;;;;;5017942;28;20494;-66
2023/10/21 05:09:32;;;;;;;1.40;0.40;;;;;;;;;;5014564;28;20444;-66
2023/10/21 05:11:59;;;;;;;1.50;0.60;;;;;;;;;;5016289;28;20440;-66
2023/10/21 05:14:28;;;;;;;1.60;0.60;;;;;;;;;;5007568;28;20532;-66
2023/10/21 05:16:55;;;;;;;2.60;0.60;;;;;;;;;;5020687;28;21176;-66
2023/10/21 05:19:22;;;;;;;1.90;0.83;;;;;;;;;;5021227;28;20444;-66
2023/10/21 05:21:49;;;;;;;2.17;0.47;;;;;;;;;;5036570;28;20443;-66
2023/10/21 05:24:16;;;;;;;1.60;0.50;;;;;;;;;;5039765;28;20533;-67
2023/10/21 05:26:47;;;;;;;1.40;0.40;;;;;;;;;;5040129;28;20482;-67
2023/10/21 05:29:14;;;;;;;1.40;0.40;;;;;;;;;;5024399;28;20856;-67
2023/10/21 05:31:41;;;;;;;1.50;0.60;;;;;;;;;;5019950;28;20454;-65
2023/10/21 05:34:08;;;;;;;1.87;0.50;;;;;;;;;;5019757;28;20450;-66
2023/10/21 05:36:35;;;;;;;1.60;0.47;;;;;;;;;;5019520;28;20543;-65
2023/10/21 05:39:04;;;;;;;1.80;0.60;;;;;;;;;;5015309;28;20524;-66
2023/10/21 05:41:31;;;;;;;1.50;0.50;;;;;;;;;;5016307;28;20444;-67
2023/10/21 05:43:59;;;;;;;2.20;0.87;;;;;;;;;;5015809;28;20867;-67
2023/10/21 05:46:26;;;;;;;1.57;0.60;;;;;;;;;;5028752;28;20471;-66
2023/10/21 05:48:53;;;;;;;1.73;0.60;;;;;;;;;;5024153;28;20447;-66
2023/10/21 05:51:20;;;;;;;1.87;0.80;;;;;;;;;;5032054;28;20436;-65
2023/10/21 05:53:47;;;;;;;1.87;0.60;;;;;;;;;;5020751;28;20482;-67
2023/10/21 05:56:16;;;;;;;2.20;0.67;;;;;;;;;;5037656;28;20789;-67
2023/10/21 05:58:43;;;;;;;2.77;0.70;;;;;;;;;;5026695;28;20460;-66
2023/10/21 06:01:12;;;;;;;2.17;0.67;;;;;;;;;;5035928;28;20595;-66
2023/10/21 06:03:40;;;;;;;1.60;0.60;;;;;;;;;;5026329;28;20439;-66
2023/10/21 06:06:07;;;;;;;2.10;0.80;;;;;;;;;;5030855;28;20499;-66
2023/10/21 06:08:34;;;;;;;1.90;0.70;;;;;;;;;;5031763;28;20487;-66
2023/10/21 06:11:01;;;;;;;1.60;0.60;;;;;;;;;;5027457;28;20463;-67
2023/10/21 06:13:28;;;;;;;1.90;0.73;;;;;;;;;;5026156;28;20452;-68
2023/10/21 06:15:55;;;;;;;2.43;0.60;;;;;;;;;;5012363;28;20478;-67
2023/10/21 06:18:24;;;;;;;2.03;1.03;;;;;;;;;;5027157;28;20456;-67
2023/10/21 06:20:51;;;;;;;2.33;0.70;;;;;;;;;;5032584;28;20606;-67
2023/10/21 06:23:18;;;;;;;2.00;0.70;;;;;;;;;;5031521;28;20450;-67
2023/10/21 06:25:45;;;;;;;2.40;0.80;;;;;;;;;;5023837;28;20467;-65
2023/10/21 06:28:14;;;;;;;1.83;0.70;;;;;;;;;;5030568;28;20485;-65
2023/10/21 06:30:41;;;;;;;2.10;0.80;;;;;;;;;;5032484;28;20567;-65
2023/10/21 06:33:08;;;;;;;1.70;0.70;;;;;;;;;;5019527;28;20832;-66
2023/10/21 06:35:37;;;;;;;2.43;0.97;;;;;;;;;;5007302;28;20523;-66
2023/10/21 06:38:05;;;;;;;1.80;0.70;;;;;;;;;;5028516;28;20854;-66
2023/10/21 06:40:32;;;;;;;3.00;1.00;;;;;;;;;;5023655;28;20515;-66
2023/10/21 06:42:59;;;;;;;1.60;0.50;;;;;;;;;;5031522;28;20439;-66
2023/10/21 06:45:27;;;;;;;2.30;1.03;;;;;;;;;;5022090;28;20464;-66
2023/10/21 06:47:54;;;;;;;1.83;0.60;;;;;;;;;;5032899;28;20479;-66
2023/10/21 06:50:21;;;;;;;2.30;0.80;;;;;;;;;;5027879;28;20927;-66
2023/10/21 06:52:50;;;;;;;2.00;0.80;;;;;;;;;;5023932;28;20452;-66
2023/10/21 06:55:18;;;;;;;2.20;0.70;;;;;;;;;;5027797;28;20467;-66
2023/10/21 06:57:45;;;;;;;2.10;0.73;;;;;;;;;;5026018;28;20471;-66
2023/10/21 07:00:13;;;;;;;3.30;1.10;;;;;;;;;;5027966;28;20529;-66
2023/10/21 07:02:40;;;;;;;1.53;0.57;;;;;;;;;;5024497;28;20447;-66
2023/10/21 07:05:09;;;;;;;1.70;0.60;;;;;;;;;;5029201;28;20553;-66
2023/10/21 07:07:37;;;;;;;2.53;0.73;;;;;;;;;;5020589;28;20539;-66
2023/10/21 07:10:06;;;;;;;2.03;0.87;;;;;;;;;;5032404;28;20447;-66
2023/10/21 07:12:35;;;;;;;2.30;1.00;;;;;;;;;;5019349;28;20475;-66
2023/10/21 07:15:02;;;;;;;1.70;0.60;;;;;;;;;;5024493;28;20471;-67
2023/10/21 07:17:31;;;;;;;1.77;0.50;;;;;;;;;;5025916;28;20455;-66
2023/10/21 07:19:58;;;;;;;1.60;0.60;;;;;;;;;;5033540;28;21008;-66
2023/10/21 07:22:25;;;;;;;1.80;0.53;;;;;;;;;;5020803;28;20447;-66
2023/10/21 07:24:55;;;;;;;1.70;0.50;;;;;;;;;;5028185;28;20455;-66
2023/10/21 07:27:23;;;;;;;2.10;0.63;;;;;;;;;;5029031;28;20518;-66
2023/10/21 07:29:50;;;;;;;1.50;0.50;;;;;;;;;;5024279;28;20509;-66
2023/10/21 07:32:17;;;;;;;1.50;0.50;;;;;;;;;;5021579;28;20468;-67
2023/10/21 07:34:44;;;;;;;1.80;0.70;;;;;;;;;;5026021;28;20447;-67
2023/10/21 07:37:11;;;;;;;1.70;0.67;;;;;;;;;;5026212;28;20428;-66
2023/10/21 07:39:37;;;;;;;2.20;0.90;;;;;;;;;;5031668;28;20818;-67
2023/10/21 07:42:05;;;;;;;2.17;0.60;;;;;;;;;;5017837;28;20444;-67
2023/10/21 07:44:34;;;;;;;1.50;0.50;;;;;;;;;;5017676;28;20494;-67
2023/10/21 07:47:01;;;;;;;2.43;0.63;;;;;;;;;;5029608;28;20478;-67
2023/10/21 07:49:28;;;;;;;1.93;0.60;;;;;;;;;;5018196;28;20460;-68
2023/10/21 07:51:55;;;;;;;1.57;0.60;;;;;;;;;;5024037;28;20452;-66
2023/10/21 07:54:22;;;;;;;2.03;0.70;;;;;;;;;;5032657;28;20447;-66
2023/10/21 07:56:50;;;;;;;1.67;0.60;;;;;;;;;;5024377;28;20472;-67
2023/10/21 07:59:18;;;;;;;2.67;0.73;;;;;;;;;;5030024;28;20450;-66
2023/10/21 08:01:47;;;;;;;1.90;0.63;;;;;;;;;;5017568;28;20451;-67
2023/10/21 08:04:14;;;;;;;1.50;0.50;;;;;;;;;;5016808;28;20440;-65
2023/10/21 08:06:43;;;;;;;1.73;0.53;;;;;;;;;;5030307;28;20851;-66
2023/10/21 08:09:14;;;;;;;1.50;0.50;;;;;;;;;;5026081;28;20860;-66
2023/10/21 08:11:41;;;;;;;1.40;0.40;;;;;;;;;;5022031;28;20472;-66
2023/10/21 08:14:08;;;;;;;1.40;0.50;;;;;;;;;;5017190;28;20483;-67
2023/10/21 08:16:35;;;;;;;1.50;0.40;;;;;;;;;;5021889;28;20476;-67
2023/10/21 08:19:04;;;;;;;1.50;0.50;;;;;;;;;;5027899;28;20448;-68
2023/10/21 08:21:33;;;;;;;1.40;0.40;;;;;;;;;;5023656;28;20443;-67
2023/10/21 08:24:02;;;;;;;1.50;0.50;;;;;;;;;;5026819;28;20528;-68
2023/10/21 08:26:29;;;;;;;1.40;0.50;;;;;;;;;;5023594;28;20870;-66
2023/10/21 08:28:56;;;;;;;1.40;0.57;;;;;;;;;;5025894;28;20523;-67
2023/10/21 08:31:24;;;;;;;1.63;0.67;;;;;;;;;;5022699;28;20443;-67
2023/10/21 08:33:51;;;;;;;1.40;0.40;;;;;;;;;;5016101;28;20522;-67
2023/10/21 08:36:20;;;;;;;1.40;0.60;;;;;;;;;;5028417;28;20464;-67
2023/10/21 08:38:48;;;;;;;1.70;0.63;;;;;;;;;;5027894;28;20443;-67
2023/10/21 08:41:15;;;;;;;1.50;0.50;;;;;;;;;;5027168;28;20447;-67
2023/10/21 08:43:45;;;;;;;1.97;0.60;;;;;;;;;;5025422;28;20443;-67
2023/10/21 08:46:13;;;;;;;1.60;0.50;;;;;;;;;;5013478;28;20729;-66
2023/10/21 08:48:41;;;;;;;1.60;0.70;;;;;;;;;;5017133;28;20567;-66
2023/10/21 08:51:09;;;;;;;2.03;0.70;;;;;;;;;;5013447;28;20926;-68
2023/10/21 08:53:39;;;;;;;1.50;0.60;;;;;;;;;;5013512;28;20465;-65
2023/10/21 08:56:06;;;;;;;1.40;0.50;;;;;;;;;;5022295;28;20494;-66
2023/10/21 08:58:33;;;;;;;1.50;0.50;;;;;;;;;;5030089;28;20451;-66
2023/10/21 09:01:01;;;;;;;1.43;0.50;;;;;;;;;;5031657;28;20470;-66
2023/10/21 09:03:28;;;;;;;2.47;0.43;;;;;;;;;;5021062;28;20448;-66
2023/10/21 09:06:05;;;;;;;1.40;0.50;;;;;;;;;;5032718;28;20483;-66
2023/10/21 09:08:33;;;;;;;1.40;0.40;;;;;;;;;;5020676;28;20483;-66
2023/10/21 09:11:05;;;;;;;1.87;0.63;;;;;;;;;;5016982;28;20503;-66
2023/10/21 09:13:33;;;;;;;1.70;0.60;;;;;;;;;;5009745;28;20436;-66
2023/10/21 09:16:00;;;;;;;1.53;0.50;;;;;;;;;;5029830;28;20467;-66
2023/10/21 09:18:28;;;;;;;1.40;0.57;;;;;;;;;;5020603;28;20437;-66
2023/10/21 09:20:55;;;;;;;1.40;0.40;;;;;;;;;;5007390;28;20520;-66
2023/10/21 09:23:22;;;;;;;1.40;0.50;;;;;;;;;;5008283;28;20515;-66
2023/10/21 09:25:50;;;;;;;1.50;0.67;;;;;;;;;;5014731;28;20472;-66
2023/10/21 09:28:24;;;;;;;1.70;0.50;;;;;;;;;;5019403;28;20480;-66
2023/10/21 09:30:58;;;;;;;1.70;0.60;;;;;;;;;;5021419;28;20455;-66
2023/10/21 09:33:25;;;;;;;1.40;0.50;;;;;;;;;;5017225;28;20494;-66
2023/10/21 09:36:03;;;;;;;1.50;0.50;;;;;;;;;;5019645;28;20448;-66
2023/10/21 09:38:36;;;;;;;4.57;0.50;;;;;;;;;;5018531;28;20830;-66
2023/10/21 09:41:03;;;;;;;4.33;0.53;;;;;;;;;;5034221;28;20439;-66
2023/10/21 09:43:32;;;;;;;3.83;0.60;;;;;;;;;;5020644;28;20440;-66
2023/10/21 09:46:05;;;;;;;1.37;0.40;;;;;;;;;;5033563;28;20460;-66
2023/10/21 09:48:34;;;;;;;2.17;0.70;;;;;;;;;;5018948;28;20476;-66
2023/10/21 09:51:03;;;;;;;1.70;0.60;;;;;;;;;;5034342;28;20494;-66
2023/10/21 09:53:35;;;;;;;1.40;0.50;;;;;;;;;;5019644;28;20443;-66
2023/10/21 09:56:03;;;;;;;1.50;0.60;;;;;;;;;;5026760;28;20469;-66
2023/10/21 09:58:31;;;;;;;1.37;0.40;;;;;;;;;;5026749;28;20432;-66
2023/10/21 10:01:02;;;;;;;2.33;0.60;;;;;;;;;;5033288;28;20448;-66
2023/10/21 10:03:34;;;;;;;1.63;0.63;;;;;;;;;;5021172;28;20455;-67
2023/10/21 10:06:03;;;;;;;4.60;1.33;;;;;;;;;;5030751;28;20536;-66
2023/10/21 10:08:30;;;;;;;2.10;0.83;;;;;;;;;;5022733;28;20539;-66
2023/10/21 10:10:57;;;;;;;1.70;0.57;;;;;;;;;;5029316;28;20491;-66
2023/10/21 10:13:26;;;;;;;1.40;0.50;;;;;;;;;;5019772;28;20483;-66
2023/10/21 10:15:54;;;;;;;1.73;0.60;;;;;;;;;;5029789;28;20968;-66
2023/10/21 10:18:25;;;;;;;1.80;0.60;;;;;;;;;;5011337;28;21011;-66
2023/10/21 10:20:53;;;;;;;2.43;0.50;;;;;;;;;;5020095;28;20506;-66
2023/10/21 10:23:22;;;;;;;1.30;0.40;;;;;;;;;;5023933;28;20441;-66
2023/10/21 10:25:51;;;;;;;1.40;0.60;;;;;;;;;;5022351;28;20476;-67
2023/10/21 10:28:19;;;;;;;17.50;5.90;;;;;;;;;;5028642;28;20509;-67
2023/10/21 10:30:47;;;;;;;2.53;1.07;;;;;;;;;;5026462;28;20823;-67
2023/10/21 10:33:17;;;;;;;2.00;0.50;;;;;;;;;;5013999;28;20510;-65
2023/10/21 10:35:48;;;;;;;2.23;0.80;;;;;;;;;;5019301;28;20487;-65
2023/10/21 10:38:20;;;;;;;1.37;0.40;;;;;;;;;;5011034;28;20897;-65
2023/10/21 10:40:48;;;;;;;1.40;0.50;;;;;;;;;;5017407;28;20441;-65
2023/10/21 10:43:17;;;;;;;1.90;0.47;;;;;;;;;;5027484;28;20440;-65
2023/10/21 10:45:45;;;;;;;1.60;0.80;;;;;;;;;;5024683;28;20472;-67
2023/10/21 10:48:12;;;;;;;1.50;0.40;;;;;;;;;;5023178;28;20483;-66
2023/10/21 10:50:40;;;;;;;1.40;0.50;;;;;;;;;;5026143;28;20836;-67
2023/10/21 10:53:15;;;;;;;2.37;0.50;;;;;;;;;;5025000;28;20968;-67
2023/10/21 10:55:44;;;;;;;2.67;0.70;;;;;;;;;;5008572;28;20459;-66
2023/10/21 10:58:12;;;;;;;1.30;0.50;;;;;;;;;;5018910;28;20444;-66
2023/10/21 11:00:40;;;;;;;1.70;0.77;;;;;;;;;;5007960;28;20437;-66
2023/10/21 11:03:07;;;;;;;2.87;0.70;;;;;;;;;;5008777;28;20499;-65
2023/10/21 11:05:37;;;;;;;1.30;0.40;;;;;;;;;;5018259;28;20480;-65
2023/10/21 11:08:07;;;;;;;1.77;0.57;;;;;;;;;;5020082;28;20448;-65
2023/10/21 11:10:35;;;;;;;1.30;0.40;;;;;;;;;;5018755;28;20444;-65
2023/10/21 11:13:05;;;;;;;1.50;0.50;;;;;;;;;;5020483;28;20451;-66
2023/10/21 11:15:32;;;;;;;2.17;1.00;;;;;;;;;;5013274;28;20475;-66
2023/10/21 11:18:00;;;;;;;1.40;0.50;;;;;;;;;;5020442;28;20864;-66
2023/10/21 11:20:27;;;;;;;9.90;0.97;;;;;;;;;;5021162;28;20464;-66
2023/10/21 11:22:55;;;;;;;1.40;0.50;;;;;;;;;;5016995;28;20479;-66
2023/10/21 11:25:24;;;;;;;1.63;0.57;;;;;;;;;;5016348;28;20479;-67
2023/10/21 11:27:52;;;;;;;2.40;0.73;;;;;;;;;;5015130;28;20976;-66
2023/10/21 11:30:22;;;;;;;1.40;0.50;;;;;;;;;;5014817;28;20876;-66
2023/10/21 11:32:49;;;;;;;2.27;0.70;;;;;;;;;;5016235;28;20537;-66
2023/10/21 11:35:16;;;;;;;1.50;0.50;;;;;;;;;;5015582;28;20556;-65
2023/10/21 11:37:44;;;;;;;2.33;0.70;;;;;;;;;;5016688;28;20456;-67
2023/10/21 11:40:15;;;;;;;1.67;0.50;;;;;;;;;;5016638;28;20460;-66
2023/10/21 11:42:44;;;;;;;2.33;1.13;;;;;;;;;;5017375;28;20487;-66
2023/10/21 11:45:13;;;;;;;2.53;0.80;;;;;;;;;;5017863;28;20480;-67
2023/10/21 11:47:41;;;;;;;1.80;0.80;;;;;;;;;;5022899;28;20459;-65
2023/10/21 11:50:10;;;;;;;3.00;0.70;;;;;;;;;;5028897;28;20486;-67
2023/10/21 11:52:42;;;;;;;1.50;0.60;;;;;;;;;;5019636;28;20451;-65
2023/10/21 11:55:33;;;;;;;1.30;0.50;;;;;;;;;;5020472;28;20487;-66
2023/10/21 12:23:37;;;;;;;1.57;0.50;;;;;;;;;;5021012;28;20471;-65
2023/10/21 12:29:49;;;;;;;1.20;0.50;;;;;;;;;;4965683;28;20486;-66
2023/10/21 12:35:32;;;;;;;1.37;0.60;;;;;;;;;;4961726;28;20460;-66
2023/10/21 12:40:59;;;;;;;3.50;0.50;;;;;;;;;;5013972;28;20416;-66
2023/10/21 12:43:34;;;;;;;2.90;0.57;;;;;;;;;;5022910;28;20879;-66
2023/10/21 12:46:14;;;;;;;5.73;1.07;;;;;;;;;;5014609;28;20483;-66
2023/10/21 12:48:41;;;;;;;1.30;0.40;;;;;;;;;;5021022;28;20977;-65
2023/10/21 12:51:14;;;;;;;1.30;0.50;;;;;;;;;;5027735;28;20447;-66
2023/10/21 12:53:42;;;;;;;1.30;0.40;;;;;;;;;;5021361;28;20444;-66
2023/10/21 12:56:09;;;;;;;1.40;0.50;;;;;;;;;;5024112;28;20493;-66
2023/10/21 12:58:36;;;;;;;3.07;0.67;;;;;;;;;;5023375;28;20451;-66
2023/10/21 13:01:05;;;;;;;1.83;0.47;;;;;;;;;;5028535;28;20448;-66
2023/10/21 13:03:32;;;;;;;1.50;0.60;;;;;;;;;;5013991;28;20460;-66
2023/10/21 13:06:00;;;;;;;1.40;0.50;;;;;;;;;;5065273;23;20608;-66
2023/10/21 13:08:28;;;;;;;2.17;0.50;;;;;;;;;;5035194;28;20466;-66
2023/10/21 13:10:56;;;;;;;1.60;0.77;;;;;;;;;;5037361;28;20542;-66
2023/10/21 13:13:23;;;;;;;1.63;0.43;;;;;;;;;;5033932;28;20516;-66
2023/10/21 13:15:50;;;;;;;1.30;0.50;;;;;;;;;;5034888;28;20988;-66
2023/10/21 13:18:18;;;;;;;1.40;0.63;;;;;;;;;;5033956;28;20489;-66
2023/10/21 13:20:46;;;;;;;1.40;0.53;;;;;;;;;;5035707;28;20840;-66
2023/10/21 13:23:13;;;;;;;1.63;0.60;;;;;;;;;;5036021;28;20486;-66
2023/10/21 13:25:41;;;;;;;1.40;0.50;;;;;;;;;;5036179;28;21016;-68
2023/10/21 13:28:08;;;;;;;3.20;0.70;;;;;;;;;;5035652;28;20454;-66
2023/10/21 13:30:36;;;;;;;2.70;1.33;;;;;;;;;;5034973;28;20471;-66
2023/10/21 13:33:05;;;;;;;1.83;0.40;;;;;;;;;;5035416;28;20459;-66
2023/10/21 13:35:34;;;;;;;1.93;0.53;;;;;;;;;;5035224;28;20475;-66
2023/10/21 13:38:01;;;;;;;1.60;0.60;;;;;;;;;;5034529;28;21370;-66
2023/10/21 13:40:30;;;;;;;1.60;0.70;;;;;;;;;;5036504;28;20458;-66
2023/10/21 13:42:59;;;;;;;1.27;0.40;;;;;;;;;;5016752;28;20447;-70
2023/10/21 13:45:26;;;;;;;1.20;0.40;;;;;;;;;;5032466;28;20492;-72
2023/10/21 13:47:55;;;;;;;1.30;0.50;;;;;;;;;;5021146;28;20450;-71
2023/10/21 13:50:24;;;;;;;1.70;0.50;;;;;;;;;;5033483;28;20479;-71
2023/10/21 13:52:51;;;;;;;1.90;0.80;;;;;;;;;;5027016;28;20459;-72
2023/10/21 13:55:19;;;;;;;1.27;0.50;;;;;;;;;;5016106;28;20809;-71
2023/10/21 13:57:46;;;;;;;1.30;0.50;;;;;;;;;;5017039;28;20451;-72
2023/10/21 14:03:07;;;;;;;2.30;0.60;;;;;;;;;;5033145;28;20477;-72
2023/10/21 14:05:34;;;;;;;1.50;0.60;;;;;;;;;;5021714;28;20515;-71
2023/10/21 14:08:01;;;;;;;1.40;0.50;;;;;;;;;;5033929;28;20454;-73
2023/10/21 14:10:28;;;;;;;1.33;0.40;;;;;;;;;;5024748;28;20883;-74
2023/10/21 14:12:55;;;;;;;1.57;0.80;;;;;;;;;;5031709;28;21039;-71
2023/10/21 14:15:24;;;;;;;1.40;0.60;;;;;;;;;;5026123;28;20502;-72
2023/10/21 14:17:51;;;;;;;1.50;0.50;;;;;;;;;;5018314;28;20460;-72
2023/10/21 14:20:18;;;;;;;1.40;0.60;;;;;;;;;;5033557;28;20435;-72
2023/10/21 14:22:45;;;;;;;3.00;0.60;;;;;;;;;;5031086;28;20463;-72
2023/10/21 14:25:12;;;;;;;2.97;0.90;;;;;;;;;;5033215;28;20877;-71
2023/10/21 14:27:39;;;;;;;1.60;0.47;;;;;;;;;;5032361;28;20523;-72
2023/10/21 14:30:09;;;;;;;2.30;0.50;;;;;;;;;;5033010;28;20491;-71
2023/10/21 14:32:38;;;;;;;1.50;0.60;;;;;;;;;;5026906;28;20447;-71
2023/10/21 14:35:07;;;;;;;1.20;0.40;;;;;;;;;;5018650;28;20460;-71
2023/10/21 14:37:34;;;;;;;1.20;0.40;;;;;;;;;;5029387;28;20520;-72
2023/10/21 14:40:03;;;;;;;1.70;0.60;;;;;;;;;;5029161;28;20431;-71
2023/10/21 14:42:32;;;;;;;1.60;0.60;;;;;;;;;;5031944;28;20440;-72
2023/10/21 14:44:59;;;;;;;1.50;0.50;;;;;;;;;;5024114;28;20447;-72
2023/10/21 14:47:30;;;;;;;1.67;0.60;;;;;;;;;;5028283;28;20466;-71
2023/10/21 14:49:59;;;;;;;1.83;0.70;;;;;;;;;;5021962;28;20922;-70
2023/10/21 14:52:26;;;;;;;1.40;0.60;;;;;;;;;;5022534;28;20509;-72
2023/10/21 14:54:55;;;;;;;1.20;0.40;;;;;;;;;;5028757;28;20447;-71
2023/10/21 14:57:22;;;;;;;1.50;0.70;;;;;;;;;;5030301;28;20565;-72
2023/10/21 14:59:49;;;;;;;1.20;0.40;;;;;;;;;;5032921;28;20454;-72
2023/10/21 15:02:17;;;;;;;1.30;0.50;;;;;;;;;;5018078;28;20450;-72
2023/10/21 15:04:45;;;;;;;1.30;0.50;;;;;;;;;;5023769;28;20989;-72
2023/10/21 15:07:13;;;;;;;1.20;0.40;;;;;;;;;;5031763;28;20467;-72
2023/10/21 15:09:40;;;;;;;2.30;0.60;;;;;;;;;;5019645;28;20854;-72
2023/10/21 15:12:07;;;;;;;1.60;0.90;;;;;;;;;;5031789;28;20458;-70
2023/10/21 15:14:34;;;;;;;1.60;0.60;;;;;;;;;;5027555;28;20973;-72
2023/10/21 15:17:03;;;;;;;2.00;0.77;;;;;;;;;;5026677;28;20471;-71
2023/10/21 15:19:30;;;;;;;3.80;0.70;;;;;;;;;;5026861;28;20471;-70
2023/10/21 15:21:57;;;;;;;1.40;0.60;;;;;;;;;;5032090;28;20471;-71
2023/10/21 15:24:26;;;;;;;1.40;0.50;;;;;;;;;;5019368;28;20444;-72
2023/10/21 15:26:53;;;;;;;1.40;0.50;;;;;;;;;;5030390;28;20520;-72